Saint Louis, Missouri
Traffic Map
Current Weather Conditions
Saint Louis, Missouri
Clear
Clear
57°
Feels Like: 57°
Wind Chill: 57° Ceiling: Unl
Heat Index: 57° Visibility: 10mi
Dew Point: 55° Wind: 0mph
Humidity: 93% Direction: ° ()
Pressure: 30.08in Gusts: 0mph
Raw Report DataKCPS 301053Z AUTO 00000KT 10SM CLR 14/13 A3008 RMK AO2 SLP183 T01390128
Traffic Incident Summary
Active as of:
Severity:
Category:
InformationThere was an issue retrieving the traffic information for this location. Please try a different location or try again shortly.
Advertisements
Track Severe Weather on mobile